createdAt,value
2022-09-22T00:02:55.781Z,14
2022-09-22T00:08:07.631Z,14
2022-09-22T00:13:19.468Z,14
2022-09-22T00:18:31.463Z,14
2022-09-22T00:23:43.399Z,14
2022-09-22T00:28:55.140Z,13
2022-09-22T00:34:07.072Z,13
2022-09-22T00:39:18.788Z,13
2022-09-22T00:44:30.665Z,13
2022-09-22T00:49:42.685Z,13
2022-09-22T00:54:54.548Z,13
2022-09-22T01:00:06.458Z,13
2022-09-22T01:05:18.194Z,13
2022-09-22T01:10:29.793Z,13
2022-09-22T01:15:41.494Z,12
2022-09-22T01:20:53.157Z,12
2022-09-22T01:26:04.660Z,12
2022-09-22T01:31:16.331Z,12
2022-09-22T01:36:28.025Z,12
2022-09-22T01:41:39.492Z,12
2022-09-22T01:46:51.280Z,12
2022-09-22T01:52:03.014Z,12
2022-09-22T01:57:14.523Z,11
2022-09-22T02:02:26.660Z,11
2022-09-22T02:07:38.696Z,11
2022-09-22T02:12:50.126Z,11
2022-09-22T02:18:01.727Z,11
2022-09-22T02:23:13.404Z,11
2022-09-22T02:28:25.016Z,11
2022-09-22T02:33:38.807Z,11
2022-09-22T02:38:49.762Z,10
2022-09-22T02:44:01.334Z,10
2022-09-22T02:49:13.026Z,10
2022-09-22T02:59:34.033Z,10
2022-09-22T03:04:45.737Z,10
2022-09-22T03:09:57.303Z,10
2022-09-22T03:15:09.045Z,10
2022-09-22T03:20:20.526Z,9
2022-09-22T03:25:32.100Z,9
2022-09-22T03:30:43.889Z,9
2022-09-22T03:35:55.639Z,9
2022-09-22T03:41:07.222Z,9
2022-09-22T03:46:19.206Z,9
2022-09-22T03:51:30.851Z,9
2022-09-22T03:56:42.497Z,9
2022-09-22T04:01:58.912Z,9
2022-09-22T04:07:11.056Z,9
2022-09-22T04:12:22.505Z,9
2022-09-22T04:17:34.214Z,9
2022-09-22T04:22:45.898Z,9
2022-09-22T04:27:57.387Z,9
2022-09-22T04:33:17.495Z,9
2022-09-22T04:38:29.073Z,9
2022-09-22T04:43:40.752Z,9
2022-09-22T04:48:53.997Z,9
2022-09-22T04:54:05.567Z,9
2022-09-22T04:59:17.422Z,9
2022-09-22T05:04:29.038Z,9
2022-09-22T05:09:40.585Z,9
2022-09-22T05:14:52.173Z,9
2022-09-22T05:20:04.030Z,9
2022-09-22T05:25:15.745Z,9
2022-09-22T05:30:27.483Z,9
2022-09-22T05:35:39.275Z,9
2022-09-22T05:40:51.091Z,9
2022-09-22T05:46:03.116Z,9
2022-09-22T05:51:14.746Z,9
2022-09-22T05:56:26.422Z,9
2022-09-22T06:01:38.281Z,9
2022-09-22T06:06:50.117Z,9
2022-09-22T06:12:05.561Z,9
2022-09-22T06:17:16.481Z,9
2022-09-22T06:22:28.541Z,10
2022-09-22T06:27:40.452Z,10
2022-09-22T06:32:52.482Z,10
2022-09-22T06:38:04.235Z,10
2022-09-22T06:43:16.060Z,10
2022-09-22T06:48:27.901Z,10
2022-09-22T06:53:39.808Z,11
2022-09-22T06:59:11.306Z,11
2022-09-22T07:04:19.560Z,11
2022-09-22T07:09:31.319Z,11
2022-09-22T07:14:43.203Z,11
2022-09-22T07:19:55.342Z,12
2022-09-22T07:25:35.018Z,12
2022-09-22T07:30:43.607Z,12
2022-09-22T07:35:55.246Z,13
2022-09-22T07:41:07.231Z,13
2022-09-22T07:46:19.281Z,13
2022-09-22T07:51:31.079Z,13
2022-09-22T07:56:43.124Z,14
2022-09-22T08:01:55.257Z,14
2022-09-22T08:07:07.530Z,14
2022-09-22T08:12:19.464Z,14
2022-09-22T08:17:31.923Z,15
2022-09-22T08:22:45.367Z,15
2022-09-22T08:27:57.422Z,15
2022-09-22T08:33:09.459Z,15
2022-09-22T08:38:21.475Z,16
2022-09-22T08:43:33.489Z,16
2022-09-22T08:48:45.559Z,16
2022-09-22T08:54:10.595Z,16
2022-09-22T08:59:20.026Z,17
2022-09-22T09:04:32.308Z,18
2022-09-22T09:09:44.745Z,18
2022-09-22T09:14:57.050Z,18
2022-09-22T09:20:09.196Z,19
2022-09-22T09:25:25.362Z,19
2022-09-22T09:30:41.326Z,19
2022-09-22T09:35:53.788Z,19
2022-09-22T09:41:05.791Z,19
2022-09-22T09:46:18.210Z,19
2022-09-22T09:51:30.212Z,19
2022-09-22T09:56:43.327Z,20
2022-09-22T10:01:55.417Z,20
2022-09-22T10:07:07.732Z,20
2022-09-22T10:12:19.743Z,20
2022-09-22T10:17:31.776Z,20
2022-09-22T10:22:43.845Z,20
2022-09-22T10:27:56.057Z,20
2022-09-22T10:33:08.679Z,20
2022-09-22T10:38:21.138Z,20
2022-09-22T10:43:33.139Z,21
2022-09-22T10:48:50.746Z,21
2022-09-22T10:54:05.530Z,20
2022-09-22T10:59:17.642Z,21
2022-09-22T11:04:33.063Z,21
2022-09-22T11:09:48.664Z,21
2022-09-22T11:15:01.185Z,22
2022-09-22T11:20:15.595Z,26
2022-09-22T11:30:42.824Z,28
2022-09-22T11:35:57.837Z,29
2022-09-22T11:46:22.073Z,29
2022-09-22T11:51:34.787Z,29
2022-09-22T11:56:48.116Z,30
2022-09-22T12:07:12.251Z,30
2022-09-22T12:22:44.521Z,28
2022-09-22T12:27:56.700Z,28
2022-09-22T12:33:10.013Z,29
2022-09-22T12:38:22.921Z,29
2022-09-22T12:48:45.763Z,28
2022-09-22T12:53:59.151Z,30
2022-09-22T13:04:21.916Z,29
2022-09-22T13:09:34.394Z,29
2022-09-22T13:35:27.007Z,25
2022-09-22T13:40:39.347Z,26
2022-09-22T13:45:51.995Z,26
2022-09-22T13:51:04.281Z,26
2022-09-22T14:11:47.490Z,24
2022-09-22T14:27:19.463Z,23
2022-09-22T14:32:31.693Z,24
2022-09-22T14:37:44.052Z,24
2022-09-22T14:42:56.239Z,24
2022-09-22T14:48:08.593Z,24
2022-09-22T14:53:20.959Z,24
2022-09-22T14:58:40.940Z,24
2022-09-22T15:03:57.164Z,24
2022-09-22T15:14:19.157Z,23
2022-09-22T15:19:31.526Z,23
2022-09-22T15:24:43.834Z,23
2022-09-22T15:29:55.940Z,23
2022-09-22T15:35:08.088Z,23
2022-09-22T15:40:20.606Z,23
2022-09-22T15:45:32.980Z,23
2022-09-22T15:55:56.790Z,22
2022-09-22T16:01:09.493Z,22
2022-09-22T16:06:21.945Z,22
2022-09-22T16:11:34.226Z,22
2022-09-22T16:16:46.500Z,22
2022-09-22T16:27:08.971Z,22
2022-09-22T16:37:31.007Z,21
2022-09-22T16:42:43.981Z,21
2022-09-22T16:47:56.020Z,21
2022-09-22T16:58:18.167Z,20
2022-09-22T17:03:30.699Z,20
2022-09-22T17:13:52.896Z,20
2022-09-22T17:19:05.175Z,20
2022-09-22T17:24:17.799Z,19
2022-09-22T17:29:30.323Z,19
2022-09-22T17:34:42.434Z,19
2022-09-22T17:39:54.367Z,19
2022-09-22T17:45:06.966Z,19
2022-09-22T17:50:19.174Z,18
2022-09-22T17:55:31.450Z,19
2022-09-22T18:00:43.757Z,18
2022-09-22T18:05:56.096Z,18
2022-09-22T18:11:08.185Z,18
2022-09-22T18:16:20.505Z,18
2022-09-22T18:21:32.699Z,18
2022-09-22T18:26:45.028Z,18
2022-09-22T18:31:57.142Z,18
2022-09-22T18:37:09.793Z,18
2022-09-22T18:42:22.490Z,18
2022-09-22T18:52:44.729Z,17
2022-09-22T18:57:56.835Z,17
2022-09-22T19:03:09.602Z,17
2022-09-22T19:08:24.395Z,17
2022-09-22T19:13:37.574Z,17
2022-09-22T19:19:00.620Z,17
2022-09-22T19:24:16.184Z,17
2022-09-22T19:29:28.427Z,17
2022-09-22T19:34:40.446Z,17
2022-09-22T19:39:52.649Z,16
2022-09-22T19:45:04.748Z,16
2022-09-22T19:50:16.863Z,16
2022-09-22T19:55:28.999Z,16
2022-09-22T20:00:41.276Z,16
2022-09-22T20:05:56.641Z,16
2022-09-22T20:11:27.488Z,16
2022-09-22T20:16:36.507Z,16
2022-09-22T20:21:48.736Z,16
2022-09-22T20:27:01.351Z,16
2022-09-22T20:32:13.914Z,16
2022-09-22T20:37:26.428Z,15
2022-09-22T20:42:38.804Z,15
2022-09-22T20:47:51.205Z,15
2022-09-22T20:53:03.412Z,15
2022-09-22T20:58:18.055Z,15
2022-09-22T21:03:29.838Z,15
2022-09-22T21:08:42.091Z,15
2022-09-22T21:13:54.404Z,14
2022-09-22T21:19:06.991Z,15
2022-09-22T21:24:19.362Z,15
2022-09-22T21:29:31.556Z,15
2022-09-22T21:34:43.528Z,14
2022-09-22T21:39:55.840Z,14
2022-09-22T21:45:07.956Z,14
2022-09-22T21:50:20.146Z,14
2022-09-22T21:55:31.979Z,14
2022-09-22T22:00:53.047Z,14
2022-09-22T22:06:02.922Z,14
2022-09-22T22:11:14.923Z,13
2022-09-22T22:16:27.383Z,14
2022-09-22T22:21:39.216Z,14
2022-09-22T22:26:51.089Z,14
2022-09-22T22:32:03.498Z,14
2022-09-22T22:37:15.642Z,13
2022-09-22T22:42:27.825Z,14
2022-09-22T22:47:40.056Z,14
2022-09-22T22:52:52.389Z,14
2022-09-22T22:58:04.650Z,14
2022-09-22T23:03:16.705Z,14
2022-09-22T23:08:28.649Z,14
2022-09-22T23:13:40.810Z,13
2022-09-22T23:18:54.174Z,13
2022-09-22T23:24:05.787Z,13
2022-09-22T23:29:17.651Z,13
2022-09-22T23:34:29.688Z,13
2022-09-22T23:39:41.653Z,13
2022-09-22T23:44:53.447Z,13
2022-09-22T23:50:05.763Z,13
2022-09-22T23:55:17.772Z,13
